• Join FlightAware (Why Join?)
  • Login
  • US Flag 
09:01PM EDT


 

Airport Tracker/Info


-or-


 

Live Flight TrackerFlight Track Log ✈ SWA1910 ✈ 04-Apr-2013 ✈ KBUF - KBWI

Flight Track Log - Related Links

Times and Time Zones

All times are in EDT time to prevent confusion due to time zone crossing. See the SWA1910 flight status page for this flight to view local times or setup timezone preferences in your user account.

Time Position Orientation Groundspeed Altitude Reporting Facility
EDT Latitude Longitude Course Direction KTS MPH feet Rate Location/Type
05:39PM 42.9167 -78.7667 228° Southwest 156 180 3,400  Level Buffalo TRACON
05:40PM 42.8397 -78.7597 176° South 259 298 7,100 3,300 Climbing Cleveland Center
05:41PM 42.7642 -78.7222 160° South 264 304 10,900 3,180 Climbing Cleveland Center
05:42PM 42.6814 -78.6400 144° Southeast 300 345 13,500 3,060 Climbing Cleveland Center
05:43PM 42.5925 -78.5553 145° Southeast 351 404 17,100 3,300 Climbing Cleveland Center
05:44PM 42.5011 -78.4653 144° Southeast 390 449 20,100 3,000 Climbing Cleveland Center
05:45PM 42.4122 -78.3811 145° Southeast 424 488 23,100 2,400 Climbing Cleveland Center
05:46PM 42.3122 -78.2864 145° Southeast 437 503 25,000 900 Climbing Cleveland Center
05:47PM 42.2103 -78.1919 146° Southeast 442 509 25,000  Level Cleveland Center
05:48PM 42.1081 -78.0922 144° Southeast 452 520 25,000  Level Cleveland Center
05:52PM 41.6897 -77.7072 145° Southeast 465 535 25,000  Level New York Center
05:53PM 41.5850 -77.6075 145° Southeast 465 535 25,000 -180 Level New York Center
05:54PM 41.4822 -77.5111 145° Southeast 465 535 24,700 -720 Descending New York Center
05:55PM 41.3653 -77.4028 145° Southeast 465 535 23,600 -1,020 Descending New York Center
05:56PM 41.2558 -77.3092 147° Southeast 465 535 22,700 -1,500 Descending New York Center
05:57PM 41.1547 -77.2167 145° Southeast 459 528 20,600 -2,040 Descending New York Center
05:58PM 41.0556 -77.1247 145° Southeast 454 522 18,600 -1,800 Descending New York Center
05:59PM 40.9600 -77.0389 146° Southeast 443 510 17,000 -1,380 Descending New York Center
06:00PM 40.8686 -76.9564 146° Southeast 408 470 15,900 -1,020 Descending New York Center
06:01PM 40.7850 -76.8775 144° Southeast 400 460 15,000 -480 Descending New York Center
06:02PM 40.7025 -76.7797 138° Southeast 405 466 15,000  Level New York Center
06:03PM 40.6142 -76.6736 138° Southeast 398 458 15,000  Level New York Center
06:04PM 40.5361 -76.5658 134° Southeast 398 458 15,000  Level New York Center
06:05PM 40.4642 -76.4561 131° Southeast 398 458 15,000  Level New York Center
06:06PM 40.3725 -76.4594 182° South 350 403 15,000  Level New York Center
06:07PM 40.2569 -76.4772 187° South 356 410 15,000 -540 Level New York Center
06:08PM 40.1561 -76.4933 187° South 372 428 14,000 -1,020 Descending New York Center
06:10PM 40.0000 -76.5167 187° South 358 412 12,400 -840 Descending Potomac TRACON
06:11PM 39.9000 -76.5333 187° South 317 365 11,900 -600 Descending Potomac TRACON
06:12PM 39.8167 -76.5500 189° South 312 359 11,300 -900 Descending Potomac TRACON
06:13PM 39.7333 -76.5667 189° South 289 333 10,200 -1,080 Descending Potomac TRACON
06:14PM 39.6667 -76.5833 191° South 271 312 9,200 -1,200 Descending Potomac TRACON
06:15PM 39.5833 -76.5833 180° South 260 299 7,900 -1,380 Descending Potomac TRACON
06:16PM 39.5333 -76.6333 218° Southwest 252 290 6,500 -1,500 Descending Potomac TRACON
06:17PM 39.4833 -76.6833 218° Southwest 249 287 5,000 -1,260 Descending Potomac TRACON
06:18PM 39.4333 -76.7500 226° Southwest 245 282 4,000 -600 Descending Potomac TRACON
06:19PM 39.3667 -76.8000 210° Southwest 242 278 3,900  Descending Potomac TRACON
06:20PM 39.3167 -76.8500 218° Southwest 228 262 4,000  Climbing Potomac TRACON
06:21PM 39.2500 -76.8667 191° South 203 234 3,900 -600 Descending Potomac TRACON
06:22PM 39.2167 -76.8833 201° Southwest 191 220 2,800 -960 Descending Potomac TRACON
06:23PM 39.1833 -76.8333 131° Southeast 176 203 2,000 -720 Descending Potomac TRACON
06:24PM 39.1833 -76.7667 90° East 168 193 1,400 -720 Descending Potomac TRACON
06:25PM 39.1833 -76.7167 90° East 136 157 600 -840 Descending Potomac TRACON
06:27PM 39.1667 -76.6667 270° West  Level FlightAware Approximate
06:34PM 39.1754 -76.6683 270° West  Level Estimated